Trooper, Pennsylvania
Current Conditions -  °F | °C
As of 1:15 PM on Monday 26 Jan 2015 (Local Time) from KLOM Reporting Station
Broken Clouds Broken Clouds  
Wind Chill: 23°   Ceiling: 1500
Heat Index: 30°   Visibility: 7mi
Dew Point: 23°   Wind: 8mph
Humidity: 75%   Direction: 60°ENE
Pressure: 29.81"   Gusts: 18mph
Location:  40.1497°N, 75.3819°W
Report Text: KLOM 261815Z AUTO 06007G16KT 7SM SCT004 BKN015 M01/M05 A2981 RMK AO1
Loading
Personal Weather Stations






























Interactive Weather Map New forecast layout! Learn more

10-Day Weather Forecast

Advertisements
Track Severe Weather on mobile